Time;durP1;ratioP1;P1;durP2;ratioP2;P2;SDS_P1;SDS_P2;PMS_P1;PMS_P2;Temp;Humidity;BMP_temperature;BMP_pressure;BME280_temperature;BME280_humidity;BME280_pressure;Samples;Min_cycle;Max_cycle;Signal;HPM_P1;HPM_P2
2022/12/20 00:01:22;;;;;;;0.27;0.27;;;11.80;99.90;;;;;;5055998;28;20029;-78
2022/12/20 00:03:50;;;;;;;0.40;0.20;;;11.60;99.90;;;;;;5058675;28;20343;-79
2022/12/20 00:06:17;;;;;;;0.10;0.10;;;11.60;99.90;;;;;;5047633;28;20057;-79
2022/12/20 00:08:44;;;;;;;0.10;0.10;;;11.60;99.90;;;;;;5051450;28;20033;-78
2022/12/20 00:11:10;;;;;;;0.10;0.10;;;11.70;99.90;;;;;;5053395;28;20041;-79
2022/12/20 00:13:36;;;;;;;0.50;0.40;;;11.80;99.90;;;;;;5063364;28;20020;-79
2022/12/20 00:16:08;;;;;;;0.32;0.32;;;11.80;99.90;;;;;;5051357;28;20047;-78
2022/12/20 00:18:34;;;;;;;0.00;0.00;;;11.70;99.90;;;;;;5063166;28;20033;-78
2022/12/20 00:21:01;;;;;;;0.13;0.13;;;11.70;99.90;;;;;;5059744;28;20029;-79
2022/12/20 00:23:28;;;;;;;0.10;0.10;;;11.60;99.90;;;;;;5061145;28;20060;-79
2022/12/20 00:26:03;;;;;;;0.90;0.25;;;11.80;99.90;;;;;;5056057;28;20060;-79
2022/12/20 00:28:30;;;;;;;0.20;0.20;;;11.70;99.90;;;;;;5061744;28;20563;-79
2022/12/20 00:30:56;;;;;;;0.10;0.10;;;11.90;99.90;;;;;;5056069;28;20354;-79
2022/12/20 00:33:22;;;;;;;0.22;0.22;;;11.80;99.90;;;;;;5063477;28;20040;-80
2022/12/20 00:35:48;;;;;;;0.10;0.10;;;11.90;99.90;;;;;;5063043;28;20039;-79
2022/12/20 00:38:13;;;;;;;0.45;0.20;;;11.90;99.90;;;;;;5056187;28;20033;-79
2022/12/20 00:40:39;;;;;;;0.10;0.10;;;12.10;99.90;;;;;;5062823;28;20025;-79
2022/12/20 00:43:05;;;;;;;0.00;0.00;;;12.00;99.90;;;;;;5058536;28;20021;-79
2022/12/20 00:45:31;;;;;;;0.10;0.10;;;12.00;99.90;;;;;;5052683;28;20131;-79
2022/12/20 00:47:56;;;;;;;0.10;0.10;;;12.10;99.90;;;;;;5051092;28;20685;-79
2022/12/20 00:50:22;;;;;;;0.20;0.20;;;12.00;99.90;;;;;;5050276;28;20033;-79
2022/12/20 00:52:48;;;;;;;0.22;0.22;;;11.90;99.90;;;;;;5050872;28;20025;-79
2022/12/20 00:55:14;;;;;;;0.10;0.10;;;12.10;99.90;;;;;;5062004;28;20025;-79
2022/12/20 00:57:40;;;;;;;0.10;0.10;;;12.10;99.90;;;;;;5055529;28;20115;-79
2022/12/20 01:00:06;;;;;;;0.00;0.00;;;12.00;99.90;;;;;;5058792;28;20104;-80
2022/12/20 01:02:32;;;;;;;0.00;0.00;;;12.20;99.90;;;;;;5057731;28;20740;-80
2022/12/20 01:04:57;;;;;;;0.45;0.30;;;12.10;99.90;;;;;;5067301;28;20040;-80
2022/12/20 01:07:23;;;;;;;0.00;0.00;;;12.20;99.90;;;;;;5060876;28;20071;-80
2022/12/20 01:09:49;;;;;;;0.20;0.20;;;12.00;99.90;;;;;;5062353;28;20559;-79
2022/12/20 01:12:16;;;;;;;1.13;0.60;;;12.00;99.90;;;;;;5054676;28;20400;-80
2022/12/20 01:14:41;;;;;;;0.10;0.10;;;11.90;99.90;;;;;;5053189;28;20123;-79
2022/12/20 01:17:07;;;;;;;0.10;0.10;;;11.90;99.90;;;;;;5055884;28;20123;-79
2022/12/20 01:19:33;;;;;;;0.10;0.10;;;12.10;99.90;;;;;;5064278;28;20042;-79
2022/12/20 01:21:58;;;;;;;0.10;0.10;;;12.10;99.90;;;;;;5063360;28;20182;-79
2022/12/20 01:24:25;;;;;;;0.45;0.20;;;12.10;99.90;;;;;;5056374;28;20119;-80
2022/12/20 01:26:50;;;;;;;0.00;0.00;;;12.30;99.90;;;;;;5054175;28;20546;-78
2022/12/20 01:29:16;;;;;;;0.03;0.03;;;12.20;99.90;;;;;;5061178;28;20119;-80
2022/12/20 01:31:43;;;;;;;0.13;0.13;;;12.30;99.90;;;;;;5056550;28;20028;-79
2022/12/20 01:34:09;;;;;;;0.00;0.00;;;12.00;99.90;;;;;;5068226;28;20143;-80
2022/12/20 01:36:37;;;;;;;0.10;0.10;;;12.00;99.90;;;;;;5063150;28;20598;-79
2022/12/20 01:39:10;;;;;;;0.10;0.10;;;11.90;99.90;;;;;;5054211;28;20052;-80
2022/12/20 01:41:37;;;;;;;0.10;0.10;;;12.00;99.90;;;;;;5060722;28;20842;-79
2022/12/20 01:44:25;;;;;;;;;;;12.00;99.90;;;;;;5061064;28;20036;-78
2022/12/20 01:46:52;;;;;;;0.52;0.47;;;11.80;99.90;;;;;;5048856;28;20467;-79
2022/12/20 01:49:29;;;;;;;0.10;0.10;;;11.90;99.90;;;;;;5052248;28;20055;-78
2022/12/20 01:52:06;;;;;;;;;;;11.70;99.90;;;;;;5055527;28;20115;-79
2022/12/20 01:55:06;;;;;;;1.10;0.65;;;11.90;99.90;;;;;;5052727;28;19919;-79
2022/12/20 01:57:46;;;;;;;0.10;0.10;;;11.70;99.90;;;;;;5063885;28;20029;-79
2022/12/20 02:00:13;;;;;;;0.10;0.10;;;11.80;99.90;;;;;;5056087;28;20044;-79
2022/12/20 02:02:41;;;;;;;0.52;0.25;;;11.80;99.90;;;;;;5054925;28;20591;-79
2022/12/20 02:05:07;;;;;;;0.10;0.10;;;11.90;99.90;;;;;;5056898;28;20139;-79
2022/12/20 02:07:34;;;;;;;0.10;0.10;;;12.00;99.90;;;;;;5066889;28;20052;-79
2022/12/20 02:10:01;;;;;;;0.10;0.10;;;12.00;99.90;;;;;;5059288;28;20041;-79
2022/12/20 02:12:46;;;;;;;0.22;0.22;;;11.90;99.90;;;;;;5055617;28;20913;-79
2022/12/20 02:15:48;;;;;;;0.00;0.00;;;11.90;99.90;;;;;;5063907;28;20032;-80
2022/12/20 02:18:44;;;;;;;5.07;0.55;;;11.70;99.90;;;;;;5061294;28;20042;-80
2022/12/20 02:21:44;;;;;;;0.10;0.10;;;11.60;99.90;;;;;;5047913;28;20033;-79
2022/12/20 02:24:46;;;;;;;0.10;0.10;;;11.50;99.90;;;;;;4985374;28;20047;-79
2022/12/20 02:27:26;;;;;;;0.63;0.63;;;11.50;99.90;;;;;;5048455;28;20033;-80
2022/12/20 02:30:21;;;;;;;0.20;0.20;;;11.60;99.90;;;;;;5058479;28;20094;-79
2022/12/20 02:32:58;;;;;;;0.08;0.08;;;11.50;99.90;;;;;;5049999;28;20044;-79
2022/12/20 02:35:27;;;;;;;0.10;0.10;;;11.40;99.90;;;;;;5051645;28;20094;-79
2022/12/20 02:37:56;;;;;;;0.10;0.10;;;11.40;99.90;;;;;;5053664;28;20029;-79
2022/12/20 02:40:26;;;;;;;2.42;0.65;;;11.80;99.90;;;;;;5050349;28;20039;-79
2022/12/20 02:42:57;;;;;;;0.00;0.00;;;11.70;99.90;;;;;;5058802;28;20028;-79
2022/12/20 02:45:27;;;;;;;0.10;0.10;;;11.70;99.90;;;;;;5055853;28;20039;-78
2022/12/20 02:48:11;;;;;;;0.10;0.10;;;11.90;99.90;;;;;;5061693;28;20040;-79
2022/12/20 02:50:44;;;;;;;0.45;0.17;;;12.00;99.90;;;;;;5052956;28;20029;-79
2022/12/20 02:53:11;;;;;;;0.20;0.20;;;12.10;99.90;;;;;;5052057;28;20761;-79
2022/12/20 02:55:47;;;;;;;;;;;12.00;99.90;;;;;;5057411;28;20036;-79
2022/12/20 02:58:25;;;;;;;0.10;0.10;;;12.10;99.90;;;;;;5055192;28;19940;-79
2022/12/20 03:00:54;;;;;;;0.65;0.65;;;12.10;99.90;;;;;;5059992;28;20025;-80
2022/12/20 03:03:23;;;;;;;0.10;0.10;;;12.20;99.90;;;;;;5056647;28;20574;-80
2022/12/20 03:05:54;;;;;;;0.95;0.75;;;12.10;99.90;;;;;;5051395;28;20040;-79
2022/12/20 03:08:21;;;;;;;0.40;0.40;;;12.30;99.90;;;;;;5055981;28;20021;-79
2022/12/20 03:10:47;;;;;;;0.10;0.10;;;12.20;99.90;;;;;;5054393;28;20047;-79
2022/12/20 03:13:13;;;;;;;0.13;0.13;;;12.20;99.90;;;;;;5056616;28;20028;-79
2022/12/20 03:15:39;;;;;;;0.00;0.00;;;12.20;99.90;;;;;;5061170;28;20039;-78
2022/12/20 03:18:05;;;;;;;0.20;0.20;;;12.40;99.90;;;;;;5055990;28;20040;-79
2022/12/20 03:20:31;;;;;;;0.10;0.10;;;12.40;99.90;;;;;;5048500;28;20032;-79
2022/12/20 03:22:57;;;;;;;0.10;0.10;;;12.50;99.90;;;;;;5061000;28;20033;-78
2022/12/20 03:25:22;;;;;;;0.10;0.10;;;12.50;99.90;;;;;;5060022;28;20850;-81
2022/12/20 03:27:48;;;;;;;0.10;0.10;;;12.50;99.90;;;;;;5059891;28;20029;-79
2022/12/20 03:30:14;;;;;;;0.20;0.20;;;12.30;99.90;;;;;;5058934;28;20045;-79
2022/12/20 03:32:40;;;;;;;0.17;0.17;;;12.40;99.90;;;;;;5055830;28;20082;-79
2022/12/20 03:35:06;;;;;;;0.00;0.00;;;12.50;99.90;;;;;;5066926;28;20036;-80
2022/12/20 03:37:32;;;;;;;0.13;0.13;;;12.40;99.90;;;;;;5058587;28;20056;-80
2022/12/20 03:39:57;;;;;;;0.00;0.00;;;12.30;99.90;;;;;;5052789;28;20824;-80
2022/12/20 03:42:23;;;;;;;0.35;0.20;;;12.40;99.90;;;;;;5053642;28;20029;-80
2022/12/20 03:44:49;;;;;;;0.10;0.10;;;12.40;99.90;;;;;;5053388;28;20060;-80
2022/12/20 03:47:14;;;;;;;0.10;0.10;;;12.30;99.90;;;;;;5066337;28;20043;-80
2022/12/20 03:49:40;;;;;;;0.10;0.10;;;12.40;99.90;;;;;;5066697;28;20037;-81
2022/12/20 03:52:06;;;;;;;0.20;0.20;;;12.30;99.90;;;;;;5051017;28;20036;-81
2022/12/20 03:54:31;;;;;;;0.03;0.03;;;12.50;99.90;;;;;;5053626;28;20037;-80
2022/12/20 03:56:57;;;;;;;0.10;0.10;;;12.50;99.90;;;;;;5059124;28;20040;-80
2022/12/20 03:59:23;;;;;;;0.10;0.10;;;12.50;99.90;;;;;;5062373;28;20108;-80
2022/12/20 04:01:48;;;;;;;0.10;0.10;;;12.50;99.90;;;;;;5057645;28;20094;-79
2022/12/20 04:04:15;;;;;;;0.10;0.10;;;12.50;99.90;;;;;;5060869;28;20032;-80
2022/12/20 04:06:41;;;;;;;0.00;0.00;;;12.40;99.90;;;;;;5052068;28;20137;-80
2022/12/20 04:09:06;;;;;;;0.10;0.10;;;12.60;99.90;;;;;;5063581;28;20072;-80
2022/12/20 04:11:32;;;;;;;0.27;0.27;;;12.40;99.90;;;;;;5052620;28;20539;-80
2022/12/20 04:13:58;;;;;;;0.45;0.38;;;12.20;99.90;;;;;;5058838;28;20068;-80
2022/12/20 04:16:27;;;;;;;0.00;0.00;;;12.30;99.90;;;;;;5069288;28;20046;-81
2022/12/20 04:18:53;;;;;;;0.10;0.10;;;12.30;99.90;;;;;;5062979;28;20025;-80
2022/12/20 04:21:23;;;;;;;0.25;0.25;;;12.50;99.90;;;;;;5059573;28;20040;-80
2022/12/20 04:23:49;;;;;;;0.10;0.10;;;12.40;99.90;;;;;;5056354;28;20037;-79
2022/12/20 04:26:15;;;;;;;0.22;0.22;;;12.50;99.90;;;;;;5056120;28;20085;-79
2022/12/20 04:28:40;;;;;;;0.10;0.10;;;12.70;99.90;;;;;;5060969;28;20068;-78
2022/12/20 04:31:06;;;;;;;0.10;0.10;;;12.40;99.90;;;;;;5050497;28;20033;-79
2022/12/20 04:33:32;;;;;;;0.17;0.17;;;12.40;99.90;;;;;;5057853;28;20155;-79
2022/12/20 04:35:58;;;;;;;0.10;0.10;;;12.40;99.90;;;;;;5060654;28;20044;-79
2022/12/20 04:38:24;;;;;;;3.97;0.75;;;12.50;99.90;;;;;;5060878;28;20175;-80
2022/12/20 04:40:51;;;;;;;0.00;0.00;;;12.50;99.90;;;;;;5055065;28;20058;-81
2022/12/20 04:43:18;;;;;;;0.00;0.00;;;12.70;99.90;;;;;;5064434;28;20097;-80
2022/12/20 04:45:45;;;;;;;0.10;0.10;;;12.70;99.90;;;;;;5053581;28;20051;-80
2022/12/20 04:48:11;;;;;;;0.00;0.00;;;12.70;99.90;;;;;;5053161;28;20119;-80
2022/12/20 04:50:37;;;;;;;0.63;0.63;;;12.70;99.90;;;;;;5062784;28;20113;-81
2022/12/20 04:55:47;;;;;;;0.45;0.40;;;12.50;99.90;;;;;;5054583;28;20043;-81
2022/12/20 04:58:12;;;;;;;0.00;0.00;;;12.40;99.90;;;;;;5062377;28;20037;-80
2022/12/20 05:00:38;;;;;;;0.00;0.00;;;12.40;99.90;;;;;;5049238;28;20689;-80
2022/12/20 05:03:04;;;;;;;1.45;0.30;;;12.50;99.90;;;;;;5064960;28;20127;-80
2022/12/20 05:05:29;;;;;;;0.00;0.00;;;12.40;99.90;;;;;;5053259;28;20043;-79
2022/12/20 05:07:55;;;;;;;0.10;0.10;;;12.40;99.90;;;;;;5056272;28;20032;-80
2022/12/20 05:10:21;;;;;;;0.10;0.10;;;12.40;99.90;;;;;;5062249;28;20029;-79
2022/12/20 05:12:47;;;;;;;0.10;0.10;;;12.20;99.90;;;;;;5060592;28;20586;-80
2022/12/20 05:15:13;;;;;;;0.00;0.00;;;12.40;99.90;;;;;;5052394;28;20036;-80
2022/12/20 05:17:39;;;;;;;0.13;0.13;;;12.40;99.90;;;;;;5050584;28;20041;-80
2022/12/20 05:20:05;;;;;;;0.10;0.10;;;12.40;99.90;;;;;;5067453;28;20131;-81
2022/12/20 05:28:00;;;;;;;0.15;0.15;;;12.30;99.90;;;;;;5054423;28;20423;-81
2022/12/20 05:30:27;;;;;;;0.10;0.10;;;12.10;99.90;;;;;;5055817;28;20028;-81
2022/12/20 05:32:52;;;;;;;0.10;0.10;;;12.10;99.90;;;;;;5062713;28;20039;-81
2022/12/20 05:35:19;;;;;;;0.52;0.47;;;12.10;99.90;;;;;;5068300;28;20029;-81
2022/12/20 05:37:45;;;;;;;0.00;0.00;;;11.90;99.90;;;;;;5066534;28;20122;-80
2022/12/20 05:40:11;;;;;;;0.20;0.20;;;12.00;99.90;;;;;;5064883;28;20044;-79
2022/12/20 05:42:37;;;;;;;0.45;0.45;;;12.00;99.90;;;;;;5058947;28;20079;-81
2022/12/20 05:45:04;;;;;;;0.40;0.40;;;12.10;99.90;;;;;;5054559;28;20041;-84
2022/12/20 05:47:32;;;;;;;0.10;0.10;;;12.20;99.90;;;;;;5055798;28;20025;-81
2022/12/20 05:49:59;;;;;;;0.00;0.00;;;12.10;99.90;;;;;;5054694;28;20531;-82
2022/12/20 05:52:25;;;;;;;0.10;0.10;;;11.90;99.90;;;;;;5067670;28;20575;-82
2022/12/20 05:54:51;;;;;;;0.67;0.23;;;12.00;99.90;;;;;;5052513;28;20064;-82
2022/12/20 05:57:17;;;;;;;0.10;0.10;;;12.10;99.90;;;;;;5063175;28;20503;-80
2022/12/20 05:59:43;;;;;;;0.00;0.00;;;12.00;99.90;;;;;;5051721;28;20033;-81
2022/12/20 06:02:09;;;;;;;0.20;0.20;;;12.20;99.90;;;;;;5061866;28;20578;-81
2022/12/20 06:04:37;;;;;;;0.03;0.03;;;12.00;99.90;;;;;;5049991;28;20052;-81
2022/12/20 06:07:04;;;;;;;0.50;0.50;;;11.90;99.90;;;;;;5052477;28;20298;-81
2022/12/20 06:09:30;;;;;;;;;;;11.90;99.90;;;;;;5066002;28;20056;-78
2022/12/20 06:11:55;;;;;;;0.30;0.30;;;12.00;99.90;;;;;;5064320;28;19963;-79
2022/12/20 06:14:21;;;;;;;0.17;0.17;;;12.00;99.90;;;;;;5058925;28;20032;-79
2022/12/20 06:16:47;;;;;;;0.28;0.28;;;12.10;99.90;;;;;;5067631;28;20029;-79
2022/12/20 06:19:13;;;;;;;0.10;0.10;;;12.10;99.90;;;;;;5067480;28;20035;-82
2022/12/20 06:21:38;;;;;;;0.10;0.10;;;12.10;99.90;;;;;;5062339;28;20063;-82
2022/12/20 06:24:05;;;;;;;0.00;0.00;;;12.30;99.90;;;;;;5048663;28;20775;-81
2022/12/20 06:26:35;;;;;;;8.07;1.85;;;12.20;99.90;;;;;;5050543;28;20430;-80
2022/12/20 06:29:01;;;;;;;0.10;0.10;;;12.20;99.90;;;;;;5050357;28;20094;-81
2022/12/20 06:31:27;;;;;;;0.25;0.25;;;12.10;99.90;;;;;;5072541;28;20044;-80
2022/12/20 06:33:53;;;;;;;0.13;0.13;;;12.20;99.90;;;;;;5054791;28;20487;-79
2022/12/20 06:36:19;;;;;;;0.10;0.10;;;12.10;99.90;;;;;;5054282;28;20036;-80
2022/12/20 06:38:44;;;;;;;0.10;0.10;;;12.10;99.90;;;;;;5056413;28;20576;-81
2022/12/20 06:41:10;;;;;;;0.40;0.40;;;12.30;99.90;;;;;;5058083;28;20111;-81
2022/12/20 06:43:36;;;;;;;0.73;0.33;;;12.00;99.90;;;;;;5052415;28;20017;-81
2022/12/20 06:46:01;;;;;;;0.65;0.55;;;11.80;99.90;;;;;;5048572;28;20033;-83
2022/12/20 06:48:28;;;;;;;0.10;0.10;;;12.10;99.90;;;;;;5059480;28;20039;-83
2022/12/20 06:50:54;;;;;;;0.10;0.10;;;12.20;99.90;;;;;;5060718;28;20021;-87
2022/12/20 06:53:20;;;;;;;0.17;0.17;;;12.20;99.90;;;;;;5053420;28;20039;-82
2022/12/20 06:55:49;;;;;;;0.22;0.20;;;11.80;99.90;;;;;;5049796;28;20037;-85
2022/12/20 06:58:18;;;;;;;0.10;0.10;;;11.50;99.90;;;;;;5064869;28;20199;-84
2022/12/20 07:00:44;;;;;;;0.20;0.20;;;11.40;99.90;;;;;;5058824;28;20108;-83
2022/12/20 07:03:10;;;;;;;0.10;0.10;;;11.30;99.90;;;;;;5059977;28;20198;-82
2022/12/20 07:05:35;;;;;;;0.20;0.20;;;11.40;99.90;;;;;;5060516;28;20151;-81
2022/12/20 07:08:03;;;;;;;0.10;0.10;;;11.50;99.90;;;;;;5052175;28;20032;-83
2022/12/20 07:10:29;;;;;;;0.10;0.10;;;11.50;99.90;;;;;;5058408;28;20036;-82
2022/12/20 07:12:55;;;;;;;0.10;0.10;;;11.30;99.90;;;;;;5061503;28;20028;-81
2022/12/20 07:15:21;;;;;;;0.10;0.10;;;11.40;99.90;;;;;;5059037;28;20033;-81
2022/12/20 07:17:47;;;;;;;0.10;0.10;;;11.40;99.90;;;;;;5059831;28;20633;-80
2022/12/20 07:20:13;;;;;;;0.10;0.10;;;11.70;99.90;;;;;;5047679;28;20029;-80
2022/12/20 07:22:39;;;;;;;0.00;0.00;;;11.60;99.90;;;;;;5057613;28;20088;-79
2022/12/20 07:25:05;;;;;;;0.10;0.10;;;11.70;99.90;;;;;;5065955;28;20916;-80
2022/12/20 07:27:30;;;;;;;0.03;0.03;;;11.90;99.90;;;;;;5054477;28;20047;-80
2022/12/20 07:29:56;;;;;;;0.10;0.10;;;11.90;99.90;;;;;;5051305;28;20040;-80
2022/12/20 07:32:22;;;;;;;0.10;0.10;;;12.10;99.90;;;;;;5047573;28;20028;-80
2022/12/20 07:34:47;;;;;;;0.10;0.10;;;11.70;99.90;;;;;;5058117;28;20029;-80
2022/12/20 07:37:13;;;;;;;0.10;0.10;;;11.80;99.90;;;;;;5059330;28;20808;-81
2022/12/20 07:39:41;;;;;;;0.25;0.25;;;11.70;99.90;;;;;;5051547;28;20104;-80
2022/12/20 07:42:08;;;;;;;0.10;0.10;;;12.00;99.90;;;;;;5061581;28;20031;-80
2022/12/20 07:44:33;;;;;;;;;;;11.90;99.90;;;;;;5065015;28;20121;-83
2022/12/20 07:46:59;;;;;;;0.10;0.10;;;12.20;99.90;;;;;;5052392;28;19967;-86
2022/12/20 07:49:25;;;;;;;0.25;0.25;;;12.30;99.90;;;;;;5052669;28;20029;-83
2022/12/20 07:51:57;;;;;;;0.10;0.10;;;12.20;99.90;;;;;;5065875;28;20104;-84
2022/12/20 07:54:32;;;;;;;0.32;0.32;;;12.30;99.90;;;;;;5057914;28;20032;-83
2022/12/20 07:57:05;;;;;;;0.10;0.10;;;12.40;99.90;;;;;;5054912;28;20025;-82
2022/12/20 07:59:38;;;;;;;0.00;0.00;;;12.20;99.90;;;;;;5062405;28;20025;-83
2022/12/20 08:02:05;;;;;;;0.35;0.35;;;12.10;99.90;;;;;;5052058;28;20412;-83
2022/12/20 08:04:32;;;;;;;0.00;0.00;;;12.10;99.90;;;;;;5054917;28;20056;-83
2022/12/20 08:07:00;;;;;;;1.85;0.45;;;12.20;99.90;;;;;;5059319;28;20056;-83
2022/12/20 08:09:28;;;;;;;0.15;0.15;;;12.40;99.90;;;;;;5062356;28;20830;-84
2022/12/20 08:11:56;;;;;;;0.10;0.10;;;12.40;99.90;;;;;;5059134;28;20117;-83
2022/12/20 08:14:22;;;;;;;0.10;0.10;;;12.40;99.90;;;;;;5057754;28;20040;-83
2022/12/20 08:16:48;;;;;;;0.15;0.15;;;12.40;99.90;;;;;;5056951;28;20033;-84
2022/12/20 08:19:13;;;;;;;0.20;0.20;;;12.20;99.90;;;;;;5051766;28;20040;-84
2022/12/20 08:21:39;;;;;;;0.88;0.43;;;12.40;99.90;;;;;;5060168;28;20773;-84
2022/12/20 08:24:05;;;;;;;0.05;0.05;;;12.50;99.90;;;;;;5059375;28;20740;-84
2022/12/20 08:26:35;;;;;;;0.20;0.20;;;12.60;99.90;;;;;;5059008;28;20025;-84
2022/12/20 08:29:01;;;;;;;2.22;1.13;;;12.60;99.90;;;;;;5058608;28;20771;-83
2022/12/20 08:31:29;;;;;;;0.10;0.10;;;12.60;99.90;;;;;;5053519;28;20100;-82
2022/12/20 08:33:55;;;;;;;0.55;0.55;;;12.70;99.90;;;;;;5053659;28;20036;-83
2022/12/20 08:36:21;;;;;;;0.17;0.15;;;12.70;99.90;;;;;;5062189;28;20040;-83
2022/12/20 08:38:47;;;;;;;0.10;0.10;;;12.80;99.90;;;;;;5060375;28;20059;-83
2022/12/20 08:41:14;;;;;;;0.60;0.50;;;12.70;99.90;;;;;;5065377;28;20021;-83
2022/12/20 08:43:41;;;;;;;0.85;0.85;;;12.70;99.90;;;;;;5065913;28;20396;-84
2022/12/20 08:46:08;;;;;;;2.08;1.70;;;12.80;99.90;;;;;;5053989;28;20045;-83
2022/12/20 08:48:35;;;;;;;0.28;0.28;;;12.80;99.90;;;;;;5058229;28;20500;-83
2022/12/20 08:51:03;;;;;;;0.10;0.10;;;12.80;99.90;;;;;;5061944;28;20052;-83
2022/12/20 08:53:29;;;;;;;0.65;0.65;;;12.80;99.90;;;;;;5061630;28;20029;-83
2022/12/20 08:56:10;;;;;;;0.13;0.13;;;13.00;99.90;;;;;;5055278;28;20028;-83
2022/12/20 08:58:37;;;;;;;0.32;0.32;;;13.20;99.90;;;;;;5058378;28;20032;-83
2022/12/20 09:01:08;;;;;;;0.52;0.52;;;13.10;99.90;;;;;;5056460;28;20816;-83
2022/12/20 09:03:35;;;;;;;0.10;0.10;;;13.20;99.90;;;;;;5065390;28;20115;-83
2022/12/20 09:06:05;;;;;;;;;;;13.10;99.90;;;;;;5055192;28;20044;-82
2022/12/20 09:08:32;;;;;;;0.30;0.30;;;13.10;99.90;;;;;;5062717;28;19919;-82
2022/12/20 09:11:13;;;;;;;0.20;0.20;;;13.10;99.90;;;;;;5059905;28;20063;-82
2022/12/20 09:13:44;;;;;;;0.55;0.38;;;13.10;99.90;;;;;;5056989;28;20028;-82
2022/12/20 09:16:11;;;;;;;0.05;0.05;;;13.10;99.90;;;;;;5054697;28;20579;-82
2022/12/20 09:18:37;;;;;;;0.10;0.10;;;13.00;99.90;;;;;;5056606;28;20028;-82
2022/12/20 09:21:05;;;;;;;0.20;0.20;;;12.90;99.90;;;;;;5061156;28;20571;-83
2022/12/20 09:23:32;;;;;;;0.22;0.10;;;12.90;99.90;;;;;;5049972;28;20029;-83
2022/12/20 09:26:06;;;;;;;0.10;0.10;;;13.00;99.90;;;;;;5060430;28;20025;-83
2022/12/20 09:28:32;;;;;;;0.43;0.43;;;13.10;99.90;;;;;;5057451;28;20039;-83
2022/12/20 09:30:59;;;;;;;0.30;0.30;;;13.20;99.90;;;;;;5054008;28;20133;-83
2022/12/20 09:33:25;;;;;;;0.20;0.20;;;13.20;99.90;;;;;;5055093;28;20040;-82
2022/12/20 09:35:50;;;;;;;0.00;0.00;;;13.30;99.90;;;;;;5062751;28;20033;-83
2022/12/20 09:38:16;;;;;;;0.00;0.00;;;13.20;99.90;;;;;;5057994;28;20120;-82
2022/12/20 09:40:48;;;;;;;0.10;0.10;;;13.10;99.90;;;;;;5059814;28;20029;-83
2022/12/20 09:43:15;;;;;;;0.00;0.00;;;13.10;99.90;;;;;;5052895;28;20439;-83
2022/12/20 09:45:42;;;;;;;0.40;0.40;;;13.30;99.90;;;;;;5056875;28;20033;-83
2022/12/20 09:48:21;;;;;;;0.00;0.00;;;13.40;99.90;;;;;;5053826;28;20060;-83
2022/12/20 09:51:28;;;;;;;0.10;0.10;;;13.40;99.90;;;;;;5060386;28;20024;-82
2022/12/20 09:54:06;;;;;;;0.10;0.10;;;13.50;99.90;;;;;;5053028;28;20531;-83
2022/12/20 09:57:19;;;;;;;0.32;0.32;;;13.60;99.90;;;;;;5061239;28;20032;-83
2022/12/20 09:59:45;;;;;;;0.38;0.38;;;13.30;99.90;;;;;;5018672;28;20043;-83
2022/12/20 10:02:19;;;;;;;0.13;0.13;;;12.80;99.90;;;;;;5056915;28;20103;-82
2022/12/20 10:04:45;;;;;;;0.00;0.00;;;13.00;99.90;;;;;;5053971;28;20024;-82
2022/12/20 10:07:33;;;;;;;0.10;0.10;;;12.90;99.90;;;;;;5053180;28;20060;-82
2022/12/20 10:10:30;;;;;;;0.25;0.25;;;12.90;99.90;;;;;;5052638;28;20104;-83
2022/12/20 10:13:17;;;;;;;0.05;0.05;;;13.10;99.90;;;;;;5053703;28;20024;-83
2022/12/20 10:15:51;;;;;;;0.20;0.20;;;13.30;99.90;;;;;;5054817;28;20112;-83
2022/12/20 10:18:31;;;;;;;0.03;0.03;;;13.40;99.90;;;;;;5050487;28;20025;-83
2022/12/20 10:21:17;;;;;;;0.15;0.15;;;13.50;99.90;;;;;;5050819;28;20028;-83
2022/12/20 10:24:01;;;;;;;0.10;0.10;;;13.50;99.90;;;;;;5060956;28;20086;-83
2022/12/20 10:26:28;;;;;;;0.03;0.03;;;13.40;99.90;;;;;;5063099;28;20148;-83
2022/12/20 10:28:54;;;;;;;0.05;0.05;;;13.40;99.90;;;;;;5060473;28;20029;-83
2022/12/20 10:31:20;;;;;;;0.00;0.00;;;13.40;99.90;;;;;;5058263;28;20458;-83
2022/12/20 10:33:46;;;;;;;0.30;0.30;;;13.40;99.90;;;;;;5052291;28;20029;-85
2022/12/20 10:36:26;;;;;;;0.17;0.17;;;13.40;99.90;;;;;;5056273;28;20032;-84
2022/12/20 10:38:58;;;;;;;0.20;0.20;;;13.50;99.90;;;;;;5051724;28;20028;-84
2022/12/20 10:41:27;;;;;;;0.40;0.40;;;13.50;99.90;;;;;;5051147;28;20102;-83
2022/12/20 10:44:14;;;;;;;0.08;0.08;;;13.60;99.90;;;;;;5050505;28;20131;-84
2022/12/20 10:46:39;;;;;;;;;;;13.80;99.90;;;;;;5051292;28;20036;-82
2022/12/20 10:49:40;;;;;;;0.10;0.10;;;13.80;99.90;;;;;;5049271;28;20351;-83
2022/12/20 10:52:06;;;;;;;0.10;0.10;;;14.00;99.90;;;;;;5051140;28;20049;-83
2022/12/20 10:54:35;;;;;;;0.20;0.20;;;14.00;99.90;;;;;;5062804;28;20035;-83
2022/12/20 10:57:13;;;;;;;0.60;0.20;;;14.00;99.90;;;;;;5063470;28;20025;-84
2022/12/20 10:59:43;;;;;;;0.00;0.00;;;14.00;99.90;;;;;;5061502;28;20028;-83
2022/12/20 11:02:29;;;;;;;0.05;0.05;;;14.00;99.90;;;;;;5065588;28;20059;-83
2022/12/20 11:05:10;;;;;;;2.53;0.73;;;14.00;99.90;;;;;;5057967;28;20140;-83
2022/12/20 11:07:38;;;;;;;0.10;0.10;;;14.00;99.90;;;;;;5061608;28;20049;-82
2022/12/20 11:10:25;;;;;;;0.10;0.10;;;14.10;99.90;;;;;;5062356;28;20762;-83
2022/12/20 11:12:59;;;;;;;0.00;0.00;;;14.10;99.90;;;;;;5061717;28;20029;-88
2022/12/20 11:15:30;;;;;;;0.20;0.20;;;14.10;99.90;;;;;;5058727;28;20028;-84
2022/12/20 11:18:18;;;;;;;0.57;0.57;;;14.10;99.90;;;;;;5061677;28;20166;-85
2022/12/20 11:21:12;;;;;;;0.65;0.55;;;14.20;99.90;;;;;;5064446;28;20101;-84
2022/12/20 11:23:44;;;;;;;0.10;0.10;;;14.30;99.90;;;;;;5062521;28;20032;-87
2022/12/20 11:26:34;;;;;;;0.10;0.10;;;14.20;99.90;;;;;;5061310;28;20075;-88
2022/12/20 11:29:34;;;;;;;0.00;0.00;;;14.30;99.90;;;;;;5062738;28;20136;-87
2022/12/20 11:32:37;;;;;;;2.65;1.20;;;14.20;99.90;;;;;;5055019;28;20020;-86
2022/12/20 11:35:15;;;;;;;0.10;0.10;;;14.20;99.90;;;;;;5065366;28;20809;-84
2022/12/20 11:38:00;;;;;;;0.10;0.10;;;14.10;99.90;;;;;;5060244;28;20025;-86
2022/12/20 11:40:52;;;;;;;0.80;0.22;;;14.20;99.90;;;;;;5052917;28;20035;-86
2022/12/20 11:43:24;;;;;;;0.40;0.40;;;14.00;99.90;;;;;;5037819;28;20796;-86
2022/12/20 11:46:22;;;;;;;1.40;0.75;;;14.10;99.90;;;;;;5049053;28;20029;-86
2022/12/20 11:48:57;;;;;;;0.10;0.10;;;14.20;99.90;;;;;;5047553;28;20546;-86
2022/12/20 11:51:49;;;;;;;0.10;0.10;;;14.30;99.90;;;;;;5052392;28;20454;-86
2022/12/20 11:54:34;;;;;;;0.00;0.00;;;14.50;99.90;;;;;;5061382;28;20028;-85
2022/12/20 11:57:10;;;;;;;0.30;0.30;;;14.80;99.90;;;;;;5062221;28;20197;-85
2022/12/20 11:59:56;;;;;;;0.10;0.10;;;15.00;99.90;;;;;;5057555;28;20025;-86
2022/12/20 12:02:27;;;;;;;0.17;0.17;;;15.00;99.90;;;;;;5052456;28;20691;-86
2022/12/20 12:05:03;;;;;;;1.35;0.40;;;15.00;99.90;;;;;;5058327;28;20376;-86
2022/12/20 12:07:39;;;;;;;0.00;0.00;;;14.90;99.90;;;;;;5062094;28;20048;-86
2022/12/20 12:10:24;;;;;;;0.10;0.10;;;14.90;99.90;;;;;;5059072;28;20036;-86
2022/12/20 12:13:09;;;;;;;0.10;0.10;;;14.80;99.90;;;;;;5047711;28;20074;-86
2022/12/20 12:16:29;;;;;;;0.10;0.10;;;14.60;99.90;;;;;;5062493;28;20262;-86
2022/12/20 12:18:58;;;;;;;0.17;0.17;;;14.40;99.90;;;;;;4965476;28;20041;-85
2022/12/20 12:21:39;;;;;;;0.20;0.20;;;14.40;99.90;;;;;;5036070;28;20040;-89
2022/12/20 12:24:34;;;;;;;0.10;0.10;;;14.40;99.90;;;;;;5056191;28;20138;-87
2022/12/20 12:27:00;;;;;;;0.10;0.10;;;14.40;99.90;;;;;;5065995;28;20156;-88
2022/12/20 12:29:28;;;;;;;0.03;0.03;;;14.50;99.90;;;;;;5061278;28;20042;-87
2022/12/20 12:31:59;;;;;;;0.15;0.15;;;14.50;99.90;;;;;;5062459;28;20747;-86
2022/12/20 12:34:46;;;;;;;0.00;0.00;;;14.50;99.90;;;;;;5067378;28;20033;-87
2022/12/20 12:37:27;;;;;;;0.20;0.20;;;14.30;99.90;;;;;;5059754;28;20040;-87
2022/12/20 12:40:09;;;;;;;0.55;0.55;;;14.30;99.90;;;;;;5065351;28;20082;-88
2022/12/20 12:43:01;;;;;;;0.10;0.10;;;14.30;99.90;;;;;;5061952;28;20343;-87
2022/12/20 12:45:48;;;;;;;1.45;0.28;;;14.20;99.90;;;;;;5058431;28;20060;-87
2022/12/20 12:48:23;;;;;;;0.55;0.55;;;14.20;99.90;;;;;;5051348;28;20511;-87
2022/12/20 12:50:53;;;;;;;0.65;0.65;;;14.40;99.90;;;;;;5061931;28;20056;-88
2022/12/20 12:53:41;;;;;;;0.10;0.10;;;14.50;99.90;;;;;;5054921;28;20943;-88
2022/12/20 12:56:25;;;;;;;1.50;0.35;;;14.40;99.90;;;;;;5060008;28;20040;-87
2022/12/20 12:59:08;;;;;;;0.30;0.30;;;14.40;99.90;;;;;;5060333;28;20031;-87
2022/12/20 13:01:46;;;;;;;0.10;0.10;;;14.40;99.90;;;;;;5063789;28;20025;-87
2022/12/20 13:04:18;;;;;;;0.22;0.20;;;14.20;99.90;;;;;;5063284;28;20025;-87
2022/12/20 13:07:02;;;;;;;0.03;0.03;;;14.10;99.90;;;;;;5060844;28;20128;-87
2022/12/20 13:09:28;;;;;;;0.10;0.10;;;14.10;99.90;;;;;;5054200;28;20021;-88
2022/12/20 13:11:55;;;;;;;0.10;0.10;;;14.10;99.90;;;;;;5058744;28;20035;-87
2022/12/20 13:14:23;;;;;;;0.00;0.00;;;14.10;99.90;;;;;;5065699;28;20033;-87
2022/12/20 13:17:01;;;;;;;0.63;0.55;;;14.00;99.90;;;;;;5051923;28;20036;-87